METAR Formatted Surface Weather Observation
Issued by NWS

Home | Current Version | Previous Version | Text Only | Print | Product List | Glossary On
Versions: 1 2 3 4 5 6 7 8 9
000
SAUS41 KGYX 272002 COR
MTRNKT
METAR KNKT 271954Z 19012KT 10SM BKN060 23/11 A3007 RMK AO2 SLP179
T02330106 $



USA.gov is the U.S. government's official web portal to all federal, state and local government web resources and services.